Riceville, Pennsylvania
Current Conditions -  °F | °C
As of 1:53 PM on Friday 24 Oct 2014 (Local Time) from KGKJ Reporting Station
Few Clouds Few Clouds  
Wind Chill: 55°   Ceiling: Unl
Heat Index: 55°   Visibility: 10mi
Dew Point: 42°   Wind: 7mph
Humidity: 62%   Direction: 270°W
Pressure: 30.03"   Gusts: NA
Location:  41.78°N, 79.8°W
Report Text: KGKJ 241753Z AUTO 27006KT 10SM FEW029 13/06 A3003 RMK AO2 SLP172 T01280056 10133 20022 58014 TSNO
Loading
Personal Weather Stations






























Interactive Weather Map
Tropical Storm Tracking
New forecast layout! Learn more

10-Day Weather Forecast

Advertisements
Track Severe Weather on mobile